Mainsville, Pennsylvania
Current Conditions -  °F | °C
As of 9:53 PM on Friday 21 Nov 2014 (Local Time) from KRYT Reporting Station
Clear Clear  
Wind Chill: -6°   Ceiling: Unl
Heat Index: -6°   Visibility: 10mi
Dew Point: -12°   Wind: 0mph
Humidity: 65%   Direction: NA
Pressure: 30.48"   Gusts: NA
Location:  40.0414°N, 77.4967°W
Report Text: KRYT 220253Z AUTO 00000KT 10SM CLR M06/M12 A3048 RMK AO2 SLP345 T10611117 53004 $
Loading
Personal Weather Stations






























Interactive Weather Map New forecast layout! Learn more

10-Day Weather Forecast

Advertisements
Track Severe Weather on mobile